createdAt,value
2023-02-25T00:00:34.511Z,13.73
2023-02-25T00:03:01.874Z,13.32
2023-02-25T00:05:31.700Z,12.50
2023-02-25T00:07:59.723Z,12.95
2023-02-25T00:10:26.691Z,13.45
2023-02-25T00:12:53.435Z,13.10
2023-02-25T00:15:20.287Z,12.70
2023-02-25T00:17:50.256Z,13.45
2023-02-25T00:20:20.834Z,12.73
2023-02-25T00:22:47.602Z,12.68
2023-02-25T00:25:16.867Z,13.00
2023-02-25T00:27:44.319Z,13.02
2023-02-25T00:30:12.245Z,12.45
2023-02-25T00:32:39.718Z,12.73
2023-02-25T00:35:07.211Z,12.63
2023-02-25T00:37:33.956Z,12.93
2023-02-25T00:40:00.730Z,12.93
2023-02-25T00:42:27.484Z,11.95
2023-02-25T00:44:54.261Z,13.00
2023-02-25T00:47:21.127Z,12.18
2023-02-25T00:49:48.182Z,13.18
2023-02-25T00:52:15.485Z,12.45
2023-02-25T00:54:42.437Z,12.55
2023-02-25T00:57:09.747Z,12.88
2023-02-25T00:59:36.610Z,13.05
2023-02-25T01:02:03.357Z,12.27
2023-02-25T01:04:30.183Z,12.38
2023-02-25T01:06:57.094Z,13.73
2023-02-25T01:09:23.865Z,12.70
2023-02-25T01:11:51.007Z,11.68
2023-02-25T01:14:23.927Z,12.45
2023-02-25T01:16:51.480Z,11.93
2023-02-25T01:19:25.490Z,12.18
2023-02-25T01:21:55.419Z,12.98
2023-02-25T01:24:28.048Z,13.38
2023-02-25T01:26:57.559Z,12.18
2023-02-25T01:29:30.374Z,12.23
2023-02-25T01:32:00.094Z,12.10
2023-02-25T01:34:28.868Z,12.05
2023-02-25T01:36:56.702Z,12.30
2023-02-25T01:39:26.449Z,12.15
2023-02-25T01:41:55.850Z,11.57
2023-02-25T01:44:44.066Z,13.18
2023-02-25T01:47:20.803Z,13.30
2023-02-25T01:49:47.737Z,11.60
2023-02-25T01:52:21.283Z,12.43
2023-02-25T01:54:52.422Z,13.73
2023-02-25T01:57:20.973Z,13.52
2023-02-25T01:59:49.234Z,12.18
2023-02-25T02:02:20.565Z,12.60
2023-02-25T02:04:53.153Z,12.75
2023-02-25T02:07:21.676Z,11.05
2023-02-25T02:09:57.663Z,12.77
2023-02-25T02:12:31.663Z,11.65
2023-02-25T02:15:00.893Z,12.70
2023-02-25T02:17:38.743Z,11.55
2023-02-25T02:20:24.301Z,12.93
2023-02-25T02:23:03.886Z,11.70
2023-02-25T02:25:59.667Z,11.82
2023-02-25T02:29:12.197Z,12.55
2023-02-25T02:31:49.846Z,12.50
2023-02-25T02:34:40.045Z,11.88
2023-02-25T02:37:27.948Z,11.75
2023-02-25T02:40:19.641Z,12.68
2023-02-25T02:42:58.529Z,11.68
2023-02-25T02:45:50.559Z,11.73
2023-02-25T02:48:23.749Z,11.75
2023-02-25T02:51:01.216Z,11.63
2023-02-25T02:53:31.028Z,11.90
2023-02-25T02:56:01.796Z,12.07
2023-02-25T02:58:37.093Z,11.98
2023-02-25T03:01:09.761Z,12.27
2023-02-25T03:03:44.197Z,12.43
2023-02-25T03:06:16.017Z,11.48
2023-02-25T03:11:12.778Z,12.23
2023-02-25T03:13:40.108Z,10.30
2023-02-25T03:16:12.511Z,12.00
2023-02-25T03:18:44.310Z,12.07
2023-02-25T03:21:18.537Z,12.48
2023-02-25T03:23:47.860Z,11.75
2023-02-25T03:26:24.501Z,11.43
2023-02-25T03:28:52.142Z,11.43
2023-02-25T03:31:43.919Z,11.85
2023-02-25T03:34:16.271Z,11.63
2023-02-25T03:36:49.524Z,11.18
2023-02-25T03:39:20.615Z,12.05
2023-02-25T03:41:52.394Z,11.45
2023-02-25T03:44:33.891Z,11.48
2023-02-25T03:47:04.663Z,11.63
2023-02-25T03:49:38.026Z,11.27
2023-02-25T03:52:11.938Z,12.27
2023-02-25T03:54:38.739Z,11.38
2023-02-25T03:57:05.952Z,11.52
2023-02-25T03:59:32.717Z,11.43
2023-02-25T04:02:01.322Z,11.07
2023-02-25T04:04:28.371Z,11.73
2023-02-25T04:06:55.186Z,11.93
2023-02-25T04:09:21.915Z,10.75
2023-02-25T04:11:49.215Z,10.32
2023-02-25T04:14:17.082Z,10.60
2023-02-25T04:16:43.845Z,10.68
2023-02-25T04:19:10.629Z,11.00
2023-02-25T04:21:37.791Z,10.55
2023-02-25T04:24:06.863Z,12.02
2023-02-25T04:26:36.802Z,11.20
2023-02-25T04:29:04.116Z,10.38
2023-02-25T04:31:31.265Z,12.25
2023-02-25T04:33:58.348Z,11.00
2023-02-25T04:36:35.977Z,11.05
2023-02-25T04:39:05.465Z,11.80
2023-02-25T04:41:35.117Z,11.07
2023-02-25T04:44:05.680Z,11.32
2023-02-25T04:46:35.719Z,10.10
2023-02-25T04:49:03.306Z,10.57
2023-02-25T04:51:30.336Z,11.05
2023-02-25T04:53:57.082Z,10.82
2023-02-25T04:56:24.640Z,11.10
2023-02-25T04:58:51.798Z,11.32
2023-02-25T05:01:18.575Z,11.43
2023-02-25T05:03:45.402Z,10.50
2023-02-25T05:06:12.228Z,11.13
2023-02-25T05:08:39.137Z,10.80
2023-02-25T05:11:06.087Z,10.80
2023-02-25T05:13:32.881Z,11.20
2023-02-25T05:16:16.498Z,10.55
2023-02-25T05:18:45.577Z,10.93
2023-02-25T05:21:15.754Z,10.05
2023-02-25T05:23:44.010Z,10.50
2023-02-25T05:26:11.609Z,10.40
2023-02-25T05:28:38.635Z,10.27
2023-02-25T05:31:07.327Z,10.55
2023-02-25T05:33:35.608Z,10.38
2023-02-25T05:36:05.104Z,10.25
2023-02-25T05:38:31.881Z,10.77
2023-02-25T05:41:02.032Z,10.20
2023-02-25T05:43:29.190Z,10.35
2023-02-25T05:45:57.568Z,10.13
2023-02-25T05:48:24.533Z,9.90
2023-02-25T05:50:52.300Z,10.82
2023-02-25T05:53:20.006Z,10.65
2023-02-25T05:55:47.137Z,10.40
2023-02-25T05:58:13.894Z,10.20
2023-02-25T06:00:40.620Z,10.60
2023-02-25T06:03:07.508Z,10.07
2023-02-25T06:05:34.324Z,10.23
2023-02-25T06:08:01.207Z,9.25
2023-02-25T06:10:28.368Z,9.63
2023-02-25T06:12:55.148Z,9.75
2023-02-25T06:15:21.883Z,9.35
2023-02-25T06:17:49.835Z,10.13
2023-02-25T06:20:17.970Z,9.38
2023-02-25T06:22:44.787Z,9.93
2023-02-25T06:25:11.567Z,9.15
2023-02-25T06:27:38.325Z,9.98
2023-02-25T06:30:05.448Z,9.18
2023-02-25T06:32:32.437Z,9.13
2023-02-25T06:34:59.376Z,10.25
2023-02-25T06:37:26.183Z,8.88
2023-02-25T06:39:53.443Z,8.65
2023-02-25T06:42:20.326Z,9.30
2023-02-25T06:44:47.037Z,9.32
2023-02-25T06:47:13.934Z,9.07
2023-02-25T06:49:40.699Z,8.75
2023-02-25T06:52:07.507Z,8.77
2023-02-25T06:54:34.324Z,9.02
2023-02-25T06:57:01.032Z,8.70
2023-02-25T06:59:27.799Z,8.38
2023-02-25T07:01:54.551Z,8.25
2023-02-25T07:04:21.598Z,8.43
2023-02-25T07:06:48.438Z,7.95
2023-02-25T07:09:15.276Z,7.97
2023-02-25T07:11:42.024Z,9.02
2023-02-25T07:14:08.863Z,8.20
2023-02-25T07:16:38.269Z,9.48
2023-02-25T07:19:05.064Z,7.72
2023-02-25T07:21:31.929Z,7.45
2023-02-25T07:23:58.802Z,8.23
2023-02-25T07:26:28.480Z,8.30
2023-02-25T07:28:57.062Z,7.53
2023-02-25T07:31:24.836Z,7.78
2023-02-25T07:33:53.976Z,7.60
2023-02-25T07:36:20.800Z,8.25
2023-02-25T07:38:50.569Z,7.68
2023-02-25T07:41:19.222Z,7.68
2023-02-25T07:43:46.362Z,7.50
2023-02-25T07:46:13.614Z,7.78
2023-02-25T07:48:40.970Z,7.30
2023-02-25T07:51:18.591Z,7.60
2023-02-25T07:53:46.695Z,6.85
2023-02-25T07:56:14.497Z,7.88
2023-02-25T07:58:41.437Z,7.05
2023-02-25T08:01:16.505Z,6.93
2023-02-25T08:03:43.245Z,7.15
2023-02-25T08:06:09.963Z,6.88
2023-02-25T08:08:37.427Z,6.53
2023-02-25T08:11:12.203Z,6.63
2023-02-25T08:13:39.121Z,7.18
2023-02-25T08:16:09.206Z,7.07
2023-02-25T08:18:36.707Z,7.03
2023-02-25T08:21:04.635Z,6.38
2023-02-25T08:23:31.685Z,7.13
2023-02-25T08:25:59.023Z,6.30
2023-02-25T08:28:27.274Z,6.50
2023-02-25T08:30:54.732Z,6.30
2023-02-25T08:33:21.952Z,6.25
2023-02-25T08:35:48.787Z,6.35
2023-02-25T08:38:15.580Z,6.18
2023-02-25T08:40:43.193Z,5.88
2023-02-25T08:43:10.804Z,5.95
2023-02-25T08:45:39.167Z,6.32
2023-02-25T08:48:06.000Z,5.65
2023-02-25T08:50:32.740Z,6.20
2023-02-25T08:52:59.446Z,5.60
2023-02-25T08:55:26.309Z,5.00
2023-02-25T08:57:53.915Z,5.75
2023-02-25T09:00:21.466Z,5.50
2023-02-25T09:02:49.516Z,8.32
2023-02-25T09:05:18.259Z,5.68
2023-02-25T09:07:47.151Z,5.60
2023-02-25T09:10:13.949Z,5.35
2023-02-25T09:12:42.332Z,5.57
2023-02-25T09:15:10.958Z,5.28
2023-02-25T09:17:38.877Z,6.10
2023-02-25T09:20:07.321Z,5.55
2023-02-25T09:22:36.241Z,5.53
2023-02-25T09:25:04.417Z,5.05
2023-02-25T09:27:31.214Z,6.00
2023-02-25T09:29:58.042Z,5.32
2023-02-25T09:32:24.964Z,5.55
2023-02-25T09:34:52.776Z,5.55
2023-02-25T09:37:19.811Z,5.25
2023-02-25T09:39:46.760Z,4.82
2023-02-25T09:42:23.000Z,5.90
2023-02-25T09:44:53.571Z,4.75
2023-02-25T09:47:28.488Z,5.70
2023-02-25T09:50:04.607Z,4.38
2023-02-25T09:52:45.037Z,4.38
2023-02-25T09:55:23.695Z,5.03
2023-02-25T09:58:05.124Z,5.30
2023-02-25T10:00:37.331Z,5.18
2023-02-25T10:03:22.962Z,4.75
2023-02-25T10:06:04.952Z,4.45
2023-02-25T10:08:57.252Z,4.22
2023-02-25T10:14:06.592Z,4.18
2023-02-25T10:16:42.499Z,4.35
2023-02-25T10:19:20.417Z,4.22
2023-02-25T10:21:50.012Z,4.03
2023-02-25T10:24:30.592Z,4.10
2023-02-25T10:27:11.399Z,4.13
2023-02-25T10:29:52.676Z,4.03
2023-02-25T10:32:26.343Z,3.92
2023-02-25T10:34:58.051Z,4.28
2023-02-25T10:37:37.658Z,4.00
2023-02-25T10:40:10.969Z,4.90
2023-02-25T10:42:38.049Z,4.07
2023-02-25T10:45:13.781Z,4.07
2023-02-25T10:47:45.119Z,4.30
2023-02-25T10:50:14.989Z,3.40
2023-02-25T10:53:17.954Z,4.22
2023-02-25T10:55:46.894Z,4.30
2023-02-25T10:58:35.122Z,4.47
2023-02-25T11:01:14.016Z,4.00
2023-02-25T11:03:53.236Z,4.03
2023-02-25T11:06:25.072Z,3.67
2023-02-25T11:08:54.799Z,3.88
2023-02-25T11:11:29.186Z,3.65
2023-02-25T11:14:14.829Z,4.78
2023-02-25T11:16:44.552Z,3.85
2023-02-25T11:19:20.562Z,4.10
2023-02-25T11:21:48.083Z,4.10
2023-02-25T11:24:18.253Z,4.10
2023-02-25T11:26:48.105Z,3.88
2023-02-25T11:29:23.055Z,4.22
2023-02-25T11:31:58.612Z,3.70
2023-02-25T11:34:28.606Z,4.25
2023-02-25T11:36:55.410Z,3.65
2023-02-25T11:39:27.914Z,3.90
2023-02-25T11:42:18.063Z,4.00
2023-02-25T11:44:45.929Z,3.47
2023-02-25T11:47:30.728Z,3.47
2023-02-25T11:50:16.209Z,3.60
2023-02-25T11:52:51.658Z,3.35
2023-02-25T11:55:46.234Z,3.55
2023-02-25T11:58:18.678Z,3.50
2023-02-25T12:01:13.319Z,3.30
2023-02-25T12:04:07.880Z,3.70
2023-02-25T12:06:56.074Z,3.58
2023-02-25T12:09:31.569Z,3.97
2023-02-25T12:12:27.992Z,3.83
2023-02-25T12:15:19.806Z,3.60
2023-02-25T12:18:10.871Z,4.20
2023-02-25T12:21:03.438Z,4.03
2023-02-25T12:23:39.200Z,3.90
2023-02-25T12:26:06.650Z,3.55
2023-02-25T12:28:49.814Z,4.07
2023-02-25T12:31:50.433Z,4.10
2023-02-25T12:34:39.745Z,4.07
2023-02-25T12:37:18.642Z,4.00
2023-02-25T12:40:17.702Z,4.35
2023-02-25T12:43:13.716Z,4.18
2023-02-25T12:45:56.860Z,4.70
2023-02-25T12:48:41.967Z,4.38
2023-02-25T12:51:14.902Z,5.10
2023-02-25T12:54:21.388Z,4.32
2023-02-25T12:56:57.266Z,4.25
2023-02-25T13:00:06.021Z,4.55
2023-02-25T13:02:42.093Z,4.85
2023-02-25T13:05:37.080Z,5.30
2023-02-25T13:08:06.600Z,4.93
2023-02-25T13:11:04.349Z,4.80
2023-02-25T13:13:50.767Z,5.18
2023-02-25T13:16:54.551Z,5.15
2023-02-25T13:19:54.426Z,5.32
2023-02-25T13:22:39.581Z,5.43
2023-02-25T13:25:21.290Z,5.35
2023-02-25T13:28:06.886Z,5.07
2023-02-25T13:30:54.068Z,5.53
2023-02-25T13:33:42.428Z,5.82
2023-02-25T13:36:19.074Z,6.03
2023-02-25T13:38:55.087Z,6.22
2023-02-25T13:41:47.951Z,6.57
2023-02-25T13:44:45.375Z,6.38
2023-02-25T13:47:28.689Z,6.43
2023-02-25T13:50:28.970Z,5.80
2023-02-25T13:53:24.633Z,6.20
2023-02-25T13:56:28.424Z,6.78
2023-02-25T13:59:01.093Z,6.82
2023-02-25T14:02:04.041Z,7.15
2023-02-25T14:04:36.661Z,7.55
2023-02-25T14:07:29.546Z,7.85
2023-02-25T14:10:21.557Z,7.97
2023-02-25T14:13:13.717Z,8.48
2023-02-25T14:15:58.491Z,8.48
2023-02-25T14:18:25.232Z,9.63
2023-02-25T14:21:04.355Z,9.77
2023-02-25T14:24:13.484Z,11.05
2023-02-25T14:27:11.067Z,10.18
2023-02-25T14:30:15.090Z,10.65
2023-02-25T14:33:00.268Z,10.38
2023-02-25T14:35:33.315Z,10.77
2023-02-25T14:38:15.782Z,11.20
2023-02-25T14:40:53.371Z,10.48
2023-02-25T14:43:40.527Z,12.00
2023-02-25T14:46:40.426Z,10.82
2023-02-25T14:49:26.695Z,11.13
2023-02-25T14:52:12.053Z,10.82
2023-02-25T14:55:02.962Z,10.80
2023-02-25T14:57:36.661Z,10.27
2023-02-25T15:00:27.870Z,10.27
2023-02-25T15:03:06.701Z,11.05
2023-02-25T15:06:27.920Z,10.18
2023-02-25T15:09:13.360Z,8.98
2023-02-25T15:12:02.054Z,8.48
2023-02-25T15:14:40.945Z,9.63
2023-02-25T15:17:35.656Z,8.13
2023-02-25T15:20:09.847Z,8.25
2023-02-25T15:22:41.925Z,9.45
2023-02-25T15:25:20.636Z,9.23
2023-02-25T15:27:47.763Z,8.70
2023-02-25T15:30:21.240Z,9.60
2023-02-25T15:32:58.063Z,9.43
2023-02-25T15:35:37.066Z,9.60
2023-02-25T15:38:09.775Z,9.68
2023-02-25T15:40:55.355Z,10.15
2023-02-25T15:43:26.416Z,10.13
2023-02-25T15:46:08.394Z,10.27
2023-02-25T15:51:06.356Z,10.40
2023-02-25T15:53:39.760Z,10.45
2023-02-25T15:56:06.676Z,10.95
2023-02-25T15:58:33.392Z,10.95
2023-02-25T16:01:07.274Z,9.70
2023-02-25T16:03:36.898Z,9.68
2023-02-25T16:06:23.133Z,9.57
2023-02-25T16:09:04.289Z,10.20
2023-02-25T16:11:44.633Z,11.57
2023-02-25T16:14:33.770Z,11.30
2023-02-25T16:17:14.189Z,12.15
2023-02-25T16:19:41.994Z,10.45
2023-02-25T16:22:37.712Z,11.50
2023-02-25T16:25:06.320Z,10.60
2023-02-25T16:27:47.220Z,11.20
2023-02-25T16:30:44.501Z,11.48
2023-02-25T16:33:30.561Z,12.38
2023-02-25T16:36:10.512Z,11.90
2023-02-25T16:38:42.766Z,11.85
2023-02-25T16:41:11.627Z,11.30
2023-02-25T16:43:40.944Z,11.98
2023-02-25T16:46:12.866Z,10.90
2023-02-25T16:51:26.092Z,11.70
2023-02-25T16:54:06.425Z,10.30
2023-02-25T16:56:33.823Z,11.27
2023-02-25T16:59:05.992Z,12.32
2023-02-25T17:01:35.675Z,12.63
2023-02-25T17:04:19.952Z,10.05
2023-02-25T17:07:23.159Z,12.85
2023-02-25T17:09:51.933Z,11.98
2023-02-25T17:12:41.362Z,11.48
2023-02-25T17:15:19.682Z,13.15
2023-02-25T17:17:50.166Z,12.60
2023-02-25T17:20:24.401Z,12.45
2023-02-25T17:22:52.506Z,12.85
2023-02-25T17:25:22.836Z,12.88
2023-02-25T17:27:50.496Z,11.85
2023-02-25T17:30:37.917Z,12.93
2023-02-25T17:33:06.132Z,12.07
2023-02-25T17:35:35.640Z,12.60
2023-02-25T17:38:02.898Z,13.77
2023-02-25T17:40:30.087Z,13.98
2023-02-25T17:43:21.322Z,13.25
2023-02-25T17:46:16.580Z,14.90
2023-02-25T17:48:50.067Z,14.82
2023-02-25T17:51:17.074Z,15.75
2023-02-25T17:54:18.696Z,14.38
2023-02-25T17:56:46.653Z,14.85
2023-02-25T17:59:13.385Z,16.40
2023-02-25T18:01:53.320Z,16.38
2023-02-25T18:04:25.171Z,17.52
2023-02-25T18:06:55.432Z,16.75
2023-02-25T18:09:31.819Z,17.10
2023-02-25T18:12:02.225Z,16.70
2023-02-25T18:14:40.892Z,19.42
2023-02-25T18:17:23.542Z,19.07
2023-02-25T18:19:50.617Z,17.95
2023-02-25T18:23:02.238Z,18.90
2023-02-25T18:25:35.836Z,18.53
2023-02-25T18:28:04.824Z,17.55
2023-02-25T18:30:33.042Z,18.63
2023-02-25T18:33:00.262Z,19.13
2023-02-25T18:35:29.665Z,19.70
2023-02-25T18:37:57.590Z,19.67
2023-02-25T18:40:54.581Z,19.10
2023-02-25T18:43:24.315Z,19.52
2023-02-25T18:45:51.172Z,19.05
2023-02-25T18:48:19.834Z,20.20
2023-02-25T18:50:46.840Z,19.95
2023-02-25T18:53:24.528Z,19.70
2023-02-25T18:55:52.975Z,19.30
2023-02-25T18:58:21.865Z,20.35
2023-02-25T19:00:55.059Z,20.00
2023-02-25T19:03:33.427Z,19.60
2023-02-25T19:06:00.269Z,17.88
2023-02-25T19:08:27.126Z,20.85
2023-02-25T19:10:54.845Z,19.15
2023-02-25T19:13:35.063Z,19.60
2023-02-25T19:16:02.593Z,19.33
2023-02-25T19:18:29.558Z,20.00
2023-02-25T19:20:56.794Z,19.33
2023-02-25T19:23:23.588Z,18.50
2023-02-25T19:25:55.724Z,18.63
2023-02-25T19:28:22.930Z,16.33
2023-02-25T19:30:51.281Z,16.80
2023-02-25T19:33:20.429Z,15.27
2023-02-25T19:35:47.250Z,17.60
2023-02-25T19:38:19.047Z,15.98
2023-02-25T19:40:48.462Z,14.50
2023-02-25T19:43:16.688Z,14.23
2023-02-25T19:45:44.340Z,15.23
2023-02-25T19:48:11.626Z,15.55
2023-02-25T19:50:40.975Z,13.75
2023-02-25T19:53:07.955Z,14.82
2023-02-25T19:55:35.115Z,13.98
2023-02-25T19:58:02.261Z,13.45
2023-02-25T20:00:29.173Z,13.75
2023-02-25T20:02:56.358Z,14.13
2023-02-25T20:05:24.325Z,13.77
2023-02-25T20:07:51.429Z,15.20
2023-02-25T20:10:18.843Z,15.38
2023-02-25T20:12:47.712Z,15.90
2023-02-25T20:15:16.205Z,16.63
2023-02-25T20:17:45.177Z,13.50
2023-02-25T20:20:13.456Z,15.50
2023-02-25T20:22:40.830Z,14.50
2023-02-25T20:25:09.953Z,15.32
2023-02-25T20:27:39.219Z,13.20
2023-02-25T20:30:07.048Z,15.55
2023-02-25T20:32:34.401Z,13.63
2023-02-25T20:35:01.425Z,15.52
2023-02-25T20:37:31.896Z,14.20
2023-02-25T20:39:59.817Z,14.68
2023-02-25T20:42:30.126Z,14.07
2023-02-25T20:44:58.833Z,14.73
2023-02-25T20:47:37.270Z,15.15
2023-02-25T20:50:06.361Z,13.52
2023-02-25T20:52:33.330Z,14.35
2023-02-25T20:55:02.711Z,14.50
2023-02-25T20:57:30.515Z,14.32
2023-02-25T20:59:57.271Z,14.75
2023-02-25T21:02:24.267Z,14.35
2023-02-25T21:04:52.010Z,15.98
2023-02-25T21:07:18.969Z,14.68
2023-02-25T21:09:45.868Z,15.60
2023-02-25T21:12:12.735Z,16.20
2023-02-25T21:14:39.518Z,15.82
2023-02-25T21:17:09.550Z,15.93
2023-02-25T21:19:38.707Z,15.77
2023-02-25T21:22:06.915Z,15.57
2023-02-25T21:24:34.641Z,16.50
2023-02-25T21:27:02.070Z,16.48
2023-02-25T21:29:29.257Z,15.32
2023-02-25T21:31:56.723Z,16.48
2023-02-25T21:34:23.546Z,16.02
2023-02-25T21:36:50.343Z,15.88
2023-02-25T21:39:17.086Z,16.42
2023-02-25T21:41:45.067Z,16.13
2023-02-25T21:44:12.612Z,17.30
2023-02-25T21:46:40.005Z,17.38
2023-02-25T21:49:06.795Z,18.42
2023-02-25T21:51:33.876Z,15.88
2023-02-25T21:54:01.547Z,17.08
2023-02-25T21:56:29.711Z,17.13
2023-02-25T21:58:59.103Z,16.65
2023-02-25T22:01:29.621Z,17.42
2023-02-25T22:03:56.517Z,16.35
2023-02-25T22:06:24.402Z,18.23
2023-02-25T22:08:52.542Z,18.05
2023-02-25T22:11:22.769Z,17.95
2023-02-25T22:13:50.707Z,20.75
2023-02-25T22:16:18.244Z,19.63
2023-02-25T22:18:45.838Z,20.30
2023-02-25T22:21:15.652Z,19.38
2023-02-25T22:23:43.566Z,21.23
2023-02-25T22:26:13.591Z,22.25
2023-02-25T22:28:41.183Z,20.48
2023-02-25T22:31:16.449Z,21.10
2023-02-25T22:33:44.587Z,21.45
2023-02-25T22:36:13.520Z,20.58
2023-02-25T22:38:42.079Z,21.13
2023-02-25T22:41:18.120Z,22.23
2023-02-25T22:43:45.618Z,21.35
2023-02-25T22:46:21.617Z,21.08
2023-02-25T22:48:49.743Z,21.13
2023-02-25T22:51:21.613Z,20.42
2023-02-25T22:56:15.326Z,19.08
2023-02-25T22:58:42.233Z,20.33
2023-02-25T23:01:11.452Z,21.30
2023-02-25T23:03:43.758Z,19.92
2023-02-25T23:06:11.670Z,19.27
2023-02-25T23:08:39.327Z,20.17
2023-02-25T23:11:22.293Z,19.60
2023-02-25T23:13:52.490Z,18.45
2023-02-25T23:16:23.884Z,17.40
2023-02-25T23:18:51.996Z,17.02
2023-02-25T23:21:20.101Z,17.02
2023-02-25T23:23:48.735Z,17.25
2023-02-25T23:26:18.525Z,16.98
2023-02-25T23:28:46.335Z,17.45
2023-02-25T23:31:25.824Z,15.93
2023-02-25T23:34:05.610Z,17.40
2023-02-25T23:36:32.408Z,16.80
2023-02-25T23:39:00.626Z,17.08
2023-02-25T23:41:28.611Z,16.70
2023-02-25T23:43:57.601Z,16.42
2023-02-25T23:46:26.631Z,16.60
2023-02-25T23:48:57.930Z,15.02
2023-02-25T23:51:25.715Z,16.60
2023-02-25T23:53:54.497Z,15.98
2023-02-25T23:56:22.408Z,15.48
2023-02-25T23:58:50.773Z,15.95
